Time;durP1;ratioP1;P1;durP2;ratioP2;P2;SDS_P1;SDS_P2;PMS_P1;PMS_P2;Temp;Humidity;BMP_temperature;BMP_pressure;BME280_temperature;BME280_humidity;BME280_pressure;Samples;Min_cycle;Max_cycle;Signal;HPM_P1;HPM_P2
2022/05/18 00:01:38;;;;;;;9.70;5.85;;;17.60;99.90;;;;;;5092980;28;20044;-66
2022/05/18 00:04:04;;;;;;;17.90;6.22;;;17.60;99.90;;;;;;5092900;28;20075;-66
2022/05/18 00:06:30;;;;;;;11.18;5.72;;;17.60;99.90;;;;;;5092708;28;20059;-66
2022/05/18 00:08:55;;;;;;;12.05;5.63;;;17.50;99.90;;;;;;5092212;28;20036;-66
2022/05/18 00:11:22;;;;;;;9.18;5.47;;;17.60;99.90;;;;;;5092587;28;20044;-66
2022/05/18 00:13:51;;;;;;;9.02;5.63;;;17.50;99.90;;;;;;5092435;28;20399;-66
2022/05/18 00:16:18;;;;;;;14.30;6.38;;;17.50;99.90;;;;;;5092626;28;20461;-66
2022/05/18 00:18:45;;;;;;;12.55;5.55;;;17.50;99.90;;;;;;5092743;28;20044;-66
2022/05/18 00:21:11;;;;;;;11.15;5.80;;;17.40;99.90;;;;;;5092958;28;20036;-66
2022/05/18 00:23:37;;;;;;;12.50;6.65;;;17.50;99.90;;;;;;5092753;28;20032;-66
2022/05/18 00:26:03;;;;;;;12.70;6.05;;;17.40;99.90;;;;;;5092663;28;20503;-66
2022/05/18 00:28:29;;;;;;;11.82;5.70;;;17.40;99.90;;;;;;5092026;28;20546;-66
2022/05/18 00:30:57;;;;;;;9.75;5.65;;;17.30;99.90;;;;;;5093141;28;20036;-66
2022/05/18 00:33:23;;;;;;;12.65;6.00;;;17.40;99.90;;;;;;5092997;28;20032;-66
2022/05/18 00:35:49;;;;;;;14.48;6.03;;;17.30;99.90;;;;;;5092899;28;20036;-66
2022/05/18 00:38:14;;;;;;;11.00;6.20;;;17.30;99.90;;;;;;5092554;28;20146;-66
2022/05/18 00:40:45;;;;;;;10.07;5.50;;;17.30;99.90;;;;;;5092086;28;20054;-66
2022/05/18 00:43:30;;;;;;;7.82;5.03;;;17.20;99.90;;;;;;5092142;28;20042;-66
2022/05/18 00:45:56;;;;;;;13.27;5.40;;;17.20;99.90;;;;;;5092101;28;20040;-66
2022/05/18 00:48:22;;;;;;;9.90;5.18;;;17.20;99.90;;;;;;5091826;28;20443;-66
2022/05/18 00:50:48;;;;;;;9.77;5.40;;;17.20;99.90;;;;;;5091539;28;20039;-66
2022/05/18 00:53:28;;;;;;;10.75;4.82;;;17.20;99.90;;;;;;5090339;28;20420;-66
2022/05/18 00:56:19;;;;;;;10.13;5.57;;;17.20;99.90;;;;;;5090290;28;20407;-66
2022/05/18 00:58:57;;;;;;;13.50;4.53;;;17.20;99.90;;;;;;5091374;28;20067;-66
2022/05/18 01:01:23;;;;;;;10.70;5.22;;;17.10;99.90;;;;;;5091512;28;20075;-66
2022/05/18 01:03:53;;;;;;;10.50;5.22;;;17.10;99.90;;;;;;5091696;28;20035;-66
2022/05/18 01:06:49;;;;;;;8.05;5.20;;;17.00;99.90;;;;;;5091690;28;20032;-66
2022/05/18 01:09:21;;;;;;;9.55;4.60;;;17.00;99.90;;;;;;5091156;28;20076;-66
2022/05/18 01:11:47;;;;;;;10.00;5.80;;;17.00;99.90;;;;;;5091395;28;20032;-66
2022/05/18 01:14:32;;;;;;;8.23;5.13;;;16.80;99.90;;;;;;5091309;28;20036;-66
2022/05/18 01:16:58;;;;;;;6.90;5.32;;;16.90;99.90;;;;;;5091587;28;20066;-66
2022/05/18 01:19:37;;;;;;;11.38;5.28;;;16.90;99.90;;;;;;5091126;28;20496;-66
2022/05/18 01:22:20;;;;;;;9.00;5.30;;;17.00;99.90;;;;;;5091277;28;20044;-66
2022/05/18 01:25:19;;;;;;;9.45;5.32;;;16.90;99.90;;;;;;5091441;28;20047;-66
2022/05/18 01:27:45;;;;;;;11.43;5.43;;;16.80;99.90;;;;;;5091210;28;20117;-66
2022/05/18 01:30:12;;;;;;;10.52;5.38;;;16.90;99.90;;;;;;5090725;28;20040;-66
2022/05/18 01:32:40;;;;;;;8.85;5.30;;;16.90;99.90;;;;;;5091065;28;20040;-66
2022/05/18 01:35:08;;;;;;;9.80;5.38;;;16.80;99.90;;;;;;5091380;28;20437;-66
2022/05/18 01:37:34;;;;;;;11.23;5.32;;;16.80;99.90;;;;;;5091188;28;20032;-66
2022/05/18 01:40:02;;;;;;;11.32;5.40;;;16.80;99.90;;;;;;5090837;28;20105;-66
2022/05/18 01:42:35;;;;;;;9.85;5.93;;;16.80;99.90;;;;;;5089694;28;20090;-66
2022/05/18 01:45:01;;;;;;;;;;;16.80;99.90;;;;;;5090106;28;20393;-66
2022/05/18 01:47:35;;;;;;;10.88;5.32;;;16.80;99.90;;;;;;5090859;28;19970;-66
2022/05/18 01:50:03;;;;;;;8.52;5.55;;;16.80;99.90;;;;;;5090701;28;20042;-66
2022/05/18 01:52:29;;;;;;;8.32;5.85;;;16.70;99.90;;;;;;5091084;28;20475;-66
2022/05/18 01:54:54;;;;;;;7.90;5.20;;;16.80;99.90;;;;;;5090911;28;20072;-66
2022/05/18 01:57:20;;;;;;;10.30;5.80;;;16.70;99.90;;;;;;5090754;28;20167;-66
2022/05/18 01:59:45;;;;;;;8.50;5.47;;;16.70;99.90;;;;;;5090344;28;20123;-66
2022/05/18 02:02:12;;;;;;;10.15;6.07;;;16.70;99.90;;;;;;5091039;28;20044;-66
2022/05/18 02:04:39;;;;;;;10.70;5.53;;;16.70;99.90;;;;;;5090982;28;20097;-66
2022/05/18 02:07:04;;;;;;;8.63;5.35;;;16.60;99.90;;;;;;5092086;28;20058;-66
2022/05/18 02:09:30;;;;;;;11.98;6.03;;;16.70;99.90;;;;;;5094557;28;20045;-66
2022/05/18 02:11:56;;;;;;;9.20;5.55;;;16.60;99.90;;;;;;5094812;28;20032;-66
2022/05/18 02:14:22;;;;;;;9.45;6.28;;;16.60;99.90;;;;;;5094720;28;20054;-66
2022/05/18 02:16:49;;;;;;;10.13;5.43;;;16.50;99.90;;;;;;5094945;28;20040;-66
2022/05/18 02:19:16;;;;;;;10.10;6.85;;;16.50;99.90;;;;;;5094692;28;20416;-66
2022/05/18 02:21:42;;;;;;;10.30;5.72;;;16.40;99.90;;;;;;5094864;28;20047;-66
2022/05/18 02:24:08;;;;;;;9.50;6.38;;;16.50;99.90;;;;;;5094575;28;20511;-66
2022/05/18 02:26:33;;;;;;;11.52;5.75;;;16.50;99.90;;;;;;5094633;28;20044;-65
2022/05/18 02:28:59;;;;;;;9.57;5.68;;;16.50;99.90;;;;;;5093864;28;20102;-66
2022/05/18 02:31:25;;;;;;;11.85;6.45;;;16.40;99.90;;;;;;5094721;28;20058;-66
2022/05/18 02:33:50;;;;;;;11.18;5.90;;;16.40;99.90;;;;;;5093095;28;20047;-65
2022/05/18 02:36:16;;;;;;;12.50;5.80;;;16.40;99.90;;;;;;5094480;28;20043;-66
2022/05/18 02:38:42;;;;;;;10.82;5.90;;;16.40;99.90;;;;;;5093953;28;20036;-66
2022/05/18 02:41:09;;;;;;;10.35;5.85;;;16.30;99.90;;;;;;5094322;28;20393;-66
2022/05/18 02:43:37;;;;;;;11.10;6.65;;;16.30;99.90;;;;;;5094211;28;20036;-66
2022/05/18 02:46:09;;;;;;;9.18;6.82;;;16.30;99.90;;;;;;5094501;28;20040;-66
2022/05/18 02:48:35;;;;;;;10.77;6.40;;;16.30;99.90;;;;;;5093922;28;20036;-66
2022/05/18 02:51:00;;;;;;;9.40;6.55;;;16.20;99.90;;;;;;5092828;28;20040;-66
2022/05/18 02:53:26;;;;;;;12.60;7.35;;;16.10;99.90;;;;;;5094156;28;20039;-66
2022/05/18 02:56:07;;;;;;;12.02;6.78;;;16.10;99.90;;;;;;5093916;28;20044;-66
2022/05/18 02:58:44;;;;;;;11.80;6.70;;;16.00;99.90;;;;;;5092268;28;20032;-66
2022/05/18 03:01:18;;;;;;;11.38;6.80;;;15.90;99.90;;;;;;5092766;28;20127;-66
2022/05/18 03:03:45;;;;;;;11.30;6.85;;;15.90;99.90;;;;;;5092735;28;20044;-66
2022/05/18 03:06:12;;;;;;;12.02;7.03;;;15.90;99.90;;;;;;5092670;28;20440;-66
2022/05/18 03:08:40;;;;;;;11.60;6.80;;;15.90;99.90;;;;;;5092053;28;20075;-66
2022/05/18 03:11:06;;;;;;;14.13;7.45;;;15.80;99.90;;;;;;5092798;28;20043;-66
2022/05/18 03:13:32;;;;;;;9.63;6.95;;;15.80;99.90;;;;;;5091271;28;20036;-66
2022/05/18 03:15:58;;;;;;;10.00;6.95;;;15.80;99.90;;;;;;5091196;28;20037;-66
2022/05/18 03:18:25;;;;;;;10.00;6.93;;;15.70;99.90;;;;;;5091991;28;20036;-66
2022/05/18 03:23:36;;;;;;;10.82;7.28;;;15.60;99.90;;;;;;5090997;28;20044;-66
2022/05/18 03:26:08;;;;;;;13.27;7.63;;;15.60;99.90;;;;;;5092523;28;20089;-66
2022/05/18 03:28:38;;;;;;;11.60;8.10;;;15.60;99.90;;;;;;5091534;28;20086;-66
2022/05/18 03:31:05;;;;;;;10.20;7.80;;;15.60;99.90;;;;;;5089160;28;20127;-66
2022/05/18 03:33:30;;;;;;;13.60;7.47;;;15.60;99.90;;;;;;5087866;28;20040;-66
2022/05/18 03:35:56;;;;;;;14.05;7.53;;;15.60;99.90;;;;;;5090238;28;20121;-66
2022/05/18 03:38:22;;;;;;;12.52;7.63;;;15.50;99.90;;;;;;5092050;28;20040;-66
2022/05/18 03:40:48;;;;;;;14.32;7.25;;;15.50;99.90;;;;;;5090074;28;20089;-66
2022/05/18 03:43:14;;;;;;;13.45;8.40;;;15.50;99.90;;;;;;5090944;28;20052;-66
2022/05/18 03:45:41;;;;;;;9.63;7.10;;;15.50;99.90;;;;;;5091454;28;20178;-66
2022/05/18 03:48:08;;;;;;;11.88;7.50;;;15.50;99.90;;;;;;5091855;28;20036;-66
2022/05/18 03:50:36;;;;;;;19.33;8.13;;;15.60;99.90;;;;;;5091713;28;20093;-66
2022/05/18 03:53:03;;;;;;;12.43;8.00;;;15.50;99.90;;;;;;5092020;28;20044;-65
2022/05/18 03:55:29;;;;;;;13.63;8.20;;;15.40;99.90;;;;;;5091744;28;20628;-66
2022/05/18 03:57:55;;;;;;;10.40;7.32;;;15.40;99.90;;;;;;5091839;28;20086;-66
2022/05/18 04:00:21;;;;;;;12.10;7.55;;;15.50;99.90;;;;;;5055214;28;1045224;-66
2022/05/18 04:02:47;;;;;;;12.05;7.75;;;15.40;99.90;;;;;;5092701;28;20473;-66
2022/05/18 04:05:15;;;;;;;11.90;7.95;;;15.40;99.90;;;;;;5092888;28;20058;-66
2022/05/18 04:07:40;;;;;;;10.60;8.10;;;15.40;99.90;;;;;;5092685;28;20043;-66
2022/05/18 04:10:07;;;;;;;13.70;7.22;;;15.50;99.90;;;;;;5092224;28;20040;-66
2022/05/18 04:12:34;;;;;;;14.23;8.15;;;15.50;99.90;;;;;;5091429;28;20449;-66
2022/05/18 04:15:00;;;;;;;12.52;7.78;;;15.50;99.90;;;;;;5092493;28;20040;-66
2022/05/18 04:17:25;;;;;;;12.63;8.38;;;15.60;99.90;;;;;;5091114;28;20511;-66
2022/05/18 04:19:52;;;;;;;10.93;7.97;;;15.60;99.90;;;;;;5092227;28;20115;-65
2022/05/18 04:22:18;;;;;;;13.35;8.27;;;15.80;99.90;;;;;;5092302;28;20618;-66
2022/05/18 04:24:43;;;;;;;14.32;8.27;;;15.80;99.90;;;;;;5092390;28;20119;-66
2022/05/18 04:27:10;;;;;;;12.32;8.48;;;15.80;99.90;;;;;;5092232;28;20044;-66
2022/05/18 04:29:36;;;;;;;12.40;7.55;;;15.80;99.90;;;;;;5091111;28;20052;-66
2022/05/18 04:32:03;;;;;;;13.82;8.27;;;15.90;99.90;;;;;;5092206;28;20040;-66
2022/05/18 04:34:28;;;;;;;14.10;8.82;;;15.90;99.90;;;;;;5092335;28;20059;-66
2022/05/18 04:36:54;;;;;;;15.57;9.00;;;15.80;99.90;;;;;;5092201;28;20663;-66
2022/05/18 04:39:19;;;;;;;17.27;8.30;;;15.80;99.90;;;;;;5090503;28;20047;-66
2022/05/18 04:41:45;;;;;;;11.27;8.73;;;16.00;99.90;;;;;;5092050;28;20040;-66
2022/05/18 04:44:11;;;;;;;14.45;8.00;;;16.00;99.90;;;;;;5091964;28;20133;-66
2022/05/18 04:46:36;;;;;;;11.15;7.65;;;16.10;99.90;;;;;;5091897;28;20036;-66
2022/05/18 04:49:03;;;;;;;13.18;9.48;;;16.20;99.90;;;;;;5091647;28;20101;-66
2022/05/18 04:51:28;;;;;;;11.57;8.15;;;16.40;99.90;;;;;;5090577;28;20067;-66
2022/05/18 04:53:54;;;;;;;20.05;9.10;;;16.50;99.90;;;;;;5090544;28;20074;-65
2022/05/18 04:56:19;;;;;;;9.90;8.15;;;16.60;99.90;;;;;;5091847;28;20067;-66
2022/05/18 04:58:45;;;;;;;15.38;8.57;;;16.80;99.90;;;;;;5091340;28;20433;-66
2022/05/18 05:01:11;;;;;;;13.70;9.65;;;16.80;99.90;;;;;;5091413;28;20046;-66
2022/05/18 05:03:37;;;;;;;14.20;8.88;;;16.90;99.90;;;;;;5091812;28;20477;-66
2022/05/18 05:06:05;;;;;;;14.15;9.43;;;17.10;99.90;;;;;;5091833;28;20444;-66
2022/05/18 05:08:31;;;;;;;14.32;9.13;;;17.20;99.90;;;;;;5091299;28;20071;-66
2022/05/18 05:10:57;;;;;;;14.57;9.45;;;17.20;99.90;;;;;;5090072;28;20048;-66
2022/05/18 05:13:23;;;;;;;13.25;9.80;;;17.20;99.90;;;;;;5091468;28;20373;-66
2022/05/18 05:15:51;;;;;;;17.35;9.27;;;17.20;99.90;;;;;;5091308;28;20036;-66
2022/05/18 05:18:17;;;;;;;14.40;9.02;;;17.30;99.90;;;;;;5091400;28;20048;-66
2022/05/18 05:20:43;;;;;;;17.73;9.90;;;17.60;99.90;;;;;;5090042;28;20044;-66
2022/05/18 05:23:09;;;;;;;15.05;9.45;;;17.80;99.90;;;;;;5091336;28;20048;-66
2022/05/18 05:25:34;;;;;;;17.25;10.38;;;17.90;99.90;;;;;;5091253;28;20043;-66
2022/05/18 05:28:00;;;;;;;14.43;9.73;;;18.10;99.90;;;;;;5091156;28;20423;-66
2022/05/18 05:30:27;;;;;;;13.80;9.52;;;18.20;99.90;;;;;;5090619;28;20036;-66
2022/05/18 05:32:52;;;;;;;18.60;9.52;;;18.20;99.90;;;;;;5073255;28;20123;-66
2022/05/18 05:35:18;;;;;;;18.45;9.52;;;18.20;99.90;;;;;;5091286;28;20123;-66
2022/05/18 05:37:44;;;;;;;17.13;8.98;;;18.30;99.90;;;;;;5091215;28;20046;-66
2022/05/18 05:40:10;;;;;;;11.38;8.68;;;18.30;99.90;;;;;;5089417;28;20645;-66
2022/05/18 05:42:37;;;;;;;16.00;9.27;;;18.50;99.90;;;;;;5090915;28;20039;-66
2022/05/18 05:45:04;;;;;;;13.38;9.40;;;18.50;99.90;;;;;;5091282;28;20044;-66
2022/05/18 05:47:29;;;;;;;15.45;9.30;;;18.60;99.90;;;;;;5089641;28;20086;-66
2022/05/18 05:49:55;;;;;;;11.90;9.27;;;18.80;99.90;;;;;;5090756;28;20040;-66
2022/05/18 05:52:20;;;;;;;12.23;9.20;;;18.90;99.90;;;;;;5089566;28;20127;-66
2022/05/18 05:54:46;;;;;;;17.00;9.57;;;19.00;99.90;;;;;;5090941;28;20071;-67
2022/05/18 05:57:12;;;;;;;12.98;10.23;;;19.10;99.90;;;;;;5090830;28;20039;-67
2022/05/18 05:59:37;;;;;;;13.98;9.70;;;19.10;99.90;;;;;;5090307;28;20492;-67
2022/05/18 06:02:06;;;;;;;15.13;9.60;;;19.30;99.90;;;;;;5089565;28;20528;-68
2022/05/18 06:04:33;;;;;;;14.98;9.60;;;19.30;99.90;;;;;;5090922;28;20047;-68
2022/05/18 06:06:59;;;;;;;14.13;9.35;;;19.30;99.90;;;;;;5090898;28;20471;-67
2022/05/18 06:09:25;;;;;;;15.30;8.82;;;19.50;99.90;;;;;;5090349;28;20066;-67
2022/05/18 06:11:50;;;;;;;17.45;9.65;;;19.60;99.90;;;;;;5090653;28;20498;-67
2022/05/18 06:14:18;;;;;;;14.52;9.73;;;19.70;99.90;;;;;;5090944;28;20040;-67
2022/05/18 06:16:46;;;;;;;12.68;10.02;;;19.70;99.90;;;;;;5091118;28;20040;-67
2022/05/18 06:19:12;;;;;;;16.45;9.45;;;19.80;99.90;;;;;;5090452;28;20040;-67
2022/05/18 06:21:38;;;;;;;17.02;9.23;;;20.00;99.90;;;;;;5090713;28;20089;-67
2022/05/18 06:24:04;;;;;;;15.43;9.75;;;20.00;99.90;;;;;;5090572;28;20127;-67
2022/05/18 06:26:29;;;;;;;19.10;9.23;;;20.10;99.90;;;;;;5090522;28;20059;-68
2022/05/18 06:28:55;;;;;;;16.60;10.07;;;20.20;99.90;;;;;;5090320;28;20515;-68
2022/05/18 06:31:21;;;;;;;18.67;9.63;;;20.30;99.90;;;;;;5089296;28;20514;-68
2022/05/18 06:33:47;;;;;;;12.80;9.43;;;20.30;99.90;;;;;;5090522;28;20036;-68
2022/05/18 06:36:12;;;;;;;14.98;9.63;;;20.50;99.90;;;;;;5090489;28;20036;-68
2022/05/18 06:38:38;;;;;;;13.65;9.55;;;20.50;99.90;;;;;;5090102;28;20043;-67
2022/05/18 06:41:22;;;;;;;11.50;9.20;;;20.50;99.90;;;;;;5090388;28;20131;-67
2022/05/18 06:43:49;;;;;;;14.95;9.40;;;20.60;99.90;;;;;;5090610;28;20090;-68
2022/05/18 06:46:16;;;;;;;14.13;9.90;;;20.70;99.90;;;;;;5090524;28;20454;-67
2022/05/18 06:48:41;;;;;;;13.88;9.15;;;20.80;99.90;;;;;;5090096;28;20063;-67
2022/05/18 06:51:08;;;;;;;13.48;9.48;;;20.90;99.90;;;;;;5090418;28;20044;-67
2022/05/18 06:53:34;;;;;;;15.07;9.38;;;21.00;99.90;;;;;;5092045;28;20043;-67
2022/05/18 06:55:59;;;;;;;13.25;9.55;;;21.10;99.90;;;;;;5094299;28;20047;-67
2022/05/18 06:58:25;;;;;;;16.52;9.70;;;21.10;99.90;;;;;;5093880;28;20039;-68
2022/05/18 07:00:50;;;;;;;16.58;10.13;;;21.20;99.90;;;;;;5093867;28;20123;-67
2022/05/18 07:03:17;;;;;;;11.50;9.35;;;21.30;99.90;;;;;;5093910;28;20036;-68
2022/05/18 07:05:43;;;;;;;14.25;9.30;;;21.30;99.90;;;;;;5093859;28;20534;-68
2022/05/18 07:08:09;;;;;;;15.10;9.25;;;21.40;99.90;;;;;;5093781;28;20036;-68
2022/05/18 07:10:35;;;;;;;14.52;9.10;;;21.50;99.90;;;;;;5093585;28;20385;-68
2022/05/18 07:13:00;;;;;;;18.50;8.93;;;21.60;99.90;;;;;;5093877;28;20035;-67
2022/05/18 07:15:26;;;;;;;13.20;9.52;;;21.80;99.90;;;;;;5093787;28;20047;-67
2022/05/18 07:17:51;;;;;;;14.68;9.30;;;21.80;99.90;;;;;;5092299;28;20044;-67
2022/05/18 07:20:17;;;;;;;15.05;9.55;;;21.70;99.90;;;;;;5093304;28;20032;-67
2022/05/18 07:22:43;;;;;;;15.23;9.48;;;21.80;99.90;;;;;;5093495;28;20044;-67
2022/05/18 07:25:09;;;;;;;13.85;8.82;;;21.80;99.90;;;;;;5093803;28;20047;-67
2022/05/18 07:27:34;;;;;;;16.73;10.32;;;22.00;99.90;;;;;;5093748;28;20096;-67
2022/05/18 07:30:02;;;;;;;14.20;9.70;;;22.00;99.90;;;;;;5093130;28;20507;-68
2022/05/18 07:32:29;;;;;;;14.65;9.50;;;22.00;99.90;;;;;;5092204;28;20040;-68
2022/05/18 07:34:54;;;;;;;14.73;9.23;;;22.20;99.90;;;;;;5093374;28;20114;-68
2022/05/18 07:37:20;;;;;;;13.90;8.30;;;22.20;99.90;;;;;;5093270;28;20466;-67
2022/05/18 07:39:46;;;;;;;11.60;9.55;;;22.40;99.90;;;;;;5093198;28;20522;-67
2022/05/18 07:42:12;;;;;;;16.08;9.00;;;22.50;99.90;;;;;;5093400;28;20044;-67
2022/05/18 07:44:38;;;;;;;14.15;9.10;;;22.50;99.90;;;;;;5093473;28;20135;-67
2022/05/18 07:47:05;;;;;;;11.85;8.27;;;22.60;99.90;;;;;;5093271;28;20826;-67
2022/05/18 07:49:38;;;;;;;13.90;8.30;;;22.80;99.90;;;;;;5092743;28;20489;-67
2022/05/18 07:52:04;;;;;;;14.60;9.02;;;22.80;99.90;;;;;;5092969;28;20032;-67
2022/05/18 07:54:30;;;;;;;14.40;8.75;;;22.90;99.90;;;;;;5093087;28;20378;-67
2022/05/18 07:56:55;;;;;;;13.35;8.35;;;22.90;99.90;;;;;;5093043;28;20035;-68
2022/05/18 07:59:21;;;;;;;13.35;7.72;;;23.10;99.90;;;;;;5092387;28;20083;-67
2022/05/18 08:01:46;;;;;;;12.07;8.82;;;23.20;99.90;;;;;;5092872;28;20127;-67
2022/05/18 08:04:12;;;;;;;15.57;8.25;;;23.20;99.90;;;;;;5091687;28;20075;-68
2022/05/18 08:06:38;;;;;;;17.17;8.88;;;23.30;99.90;;;;;;5092413;28;20568;-68
2022/05/18 08:09:04;;;;;;;14.52;8.60;;;23.40;99.90;;;;;;5092449;28;20070;-68
2022/05/18 08:15:05;;;;;;;15.85;9.80;;;23.40;99.90;;;;;;5092637;28;20438;-67
2022/05/18 08:17:17;;;;;;;13.32;8.63;;;23.50;99.90;;;;;;5092330;28;20047;-68
2022/05/18 08:19:43;;;;;;;14.23;9.07;;;23.70;99.90;;;;;;5092266;28;20044;-68
2022/05/18 08:22:09;;;;;;;11.70;8.00;;;23.70;99.90;;;;;;5092601;28;20094;-67
2022/05/18 08:24:36;;;;;;;10.70;8.13;;;23.90;99.90;;;;;;5092517;28;20079;-68
2022/05/18 08:27:04;;;;;;;13.88;7.55;;;23.80;99.90;;;;;;5092417;28;20050;-67
2022/05/18 08:29:29;;;;;;;12.07;7.18;;;23.80;99.90;;;;;;5091739;28;20088;-67
2022/05/18 08:31:56;;;;;;;10.85;7.82;;;23.90;99.90;;;;;;5091094;28;20456;-68
2022/05/18 08:34:21;;;;;;;11.48;7.45;;;24.00;99.90;;;;;;5092570;28;20032;-68
2022/05/18 08:36:47;;;;;;;10.77;7.88;;;24.10;99.90;;;;;;5092038;28;20466;-68
2022/05/18 08:39:13;;;;;;;13.45;7.75;;;24.20;99.90;;;;;;5091802;28;20066;-67
2022/05/18 08:41:47;;;;;;;10.70;7.28;;;24.30;99.90;;;;;;5092262;28;20063;-68
2022/05/18 08:44:31;;;;;;;9.77;7.47;;;24.50;99.90;;;;;;5092827;28;20562;-68
2022/05/18 08:47:32;;;;;;;10.45;6.30;;;24.60;99.90;;;;;;5092565;28;20501;-68
2022/05/18 08:50:04;;;;;;;10.88;6.55;;;24.60;99.90;;;;;;5028812;28;20057;-68
2022/05/18 08:52:50;;;;;;;8.55;6.43;;;24.60;99.90;;;;;;5029415;28;20046;-67
2022/05/18 08:55:41;;;;;;;10.35;6.57;;;24.60;99.90;;;;;;4996379;28;20490;-68
2022/05/18 08:58:38;;;;;;;8.48;6.15;;;24.50;99.90;;;;;;5029235;28;20406;-68
2022/05/18 09:01:21;;;;;;;8.30;5.80;;;24.70;99.90;;;;;;5023485;28;20105;-68
2022/05/18 09:04:07;;;;;;;6.80;5.93;;;24.70;99.90;;;;;;5029117;28;20045;-68
2022/05/18 09:06:47;;;;;;;11.57;5.25;;;24.90;99.90;;;;;;5029080;28;20069;-68
2022/05/18 09:12:05;;;;;;;7.05;4.43;;;24.90;99.90;;;;;;5012429;28;20053;-68
2022/05/18 09:14:37;;;;;;;8.20;4.10;;;25.00;99.90;;;;;;5028837;28;20049;-68
2022/05/18 09:17:08;;;;;;;;;;;25.00;99.90;;;;;;5028997;28;20076;-67
2022/05/18 09:19:50;;;;;;;11.75;4.63;;;25.00;99.90;;;;;;5028465;28;19921;-68
2022/05/18 09:22:41;;;;;;;8.63;4.53;;;25.20;99.90;;;;;;5028777;28;20045;-68
2022/05/18 09:25:25;;;;;;;7.75;4.10;;;25.30;99.90;;;;;;5030171;28;20045;-68
2022/05/18 09:28:15;;;;;;;9.93;3.67;;;25.40;99.90;;;;;;5091141;28;20036;-68
2022/05/18 09:31:08;;;;;;;11.55;4.53;;;25.40;99.90;;;;;;5090907;28;20047;-68
2022/05/18 09:33:40;;;;;;;11.07;4.43;;;25.50;99.90;;;;;;5091242;28;20036;-67
2022/05/18 09:36:27;;;;;;;8.00;3.92;;;25.50;99.90;;;;;;5091082;28;20036;-68
2022/05/18 09:39:03;;;;;;;5.47;3.65;;;25.60;99.90;;;;;;5090984;28;20036;-68
2022/05/18 09:41:34;;;;;;;7.40;3.75;;;25.60;99.90;;;;;;5090947;28;20433;-68
2022/05/18 09:44:22;;;;;;;7.75;5.20;;;25.70;99.90;;;;;;5091137;28;20093;-68
2022/05/18 09:46:49;;;;;;;7.80;4.18;;;25.60;99.90;;;;;;5091207;28;20103;-68
2022/05/18 09:49:19;;;;;;;5.82;3.75;;;25.60;99.90;;;;;;5089223;28;20052;-68
2022/05/18 09:51:46;;;;;;;9.73;4.03;;;25.70;99.90;;;;;;5091094;28;20396;-68
2022/05/18 09:54:12;;;;;;;9.10;3.72;;;25.80;99.90;;;;;;5090917;28;20585;-68
2022/05/18 09:56:46;;;;;;;8.68;4.85;;;25.80;99.90;;;;;;5090960;28;20095;-68
2022/05/18 09:59:18;;;;;;;9.00;4.30;;;25.90;99.90;;;;;;5089152;28;20048;-68
2022/05/18 10:07:30;;;;;;;8.25;4.55;;;26.00;99.90;;;;;;5090652;28;20044;-68
2022/05/18 10:10:15;;;;;;;6.80;4.82;;;26.10;99.90;;;;;;5089192;28;20040;-68
2022/05/18 10:12:48;;;;;;;7.80;4.80;;;26.10;99.90;;;;;;5090941;28;20058;-68
2022/05/18 10:15:35;;;;;;;8.63;5.35;;;26.10;99.90;;;;;;5091052;28;20037;-68
2022/05/18 10:18:10;;;;;;;11.30;5.97;;;26.20;99.90;;;;;;5091114;28;20047;-69
2022/05/18 10:20:37;;;;;;;9.93;5.90;;;26.20;99.90;;;;;;5090635;28;20076;-68
2022/05/18 10:23:04;;;;;;;9.07;5.68;;;26.20;99.90;;;;;;5090764;28;20085;-68
2022/05/18 10:25:47;;;;;;;10.95;6.25;;;26.20;99.90;;;;;;5090633;28;20048;-68
2022/05/18 10:28:22;;;;;;;9.13;6.05;;;26.40;99.90;;;;;;5091905;28;20040;-68
2022/05/18 10:30:58;;;;;;;8.82;6.55;;;26.40;99.90;;;;;;5094463;28;20044;-67
2022/05/18 10:33:36;;;;;;;11.90;5.95;;;26.50;99.90;;;;;;5093305;28;20096;-68
2022/05/18 10:36:22;;;;;;;8.98;6.60;;;26.40;99.90;;;;;;5094576;28;20043;-68
2022/05/18 10:38:57;;;;;;;11.18;6.78;;;26.40;99.90;;;;;;5094359;28;20386;-68
2022/05/18 10:41:28;;;;;;;10.65;6.80;;;26.40;99.90;;;;;;5093073;28;20040;-68
2022/05/18 10:44:03;;;;;;;10.10;6.63;;;26.40;99.90;;;;;;5094442;28;20036;-68
2022/05/18 10:46:34;;;;;;;14.88;8.10;;;26.40;99.90;;;;;;5094307;28;20051;-68
2022/05/18 10:49:10;;;;;;;13.27;7.40;;;26.30;99.90;;;;;;5093735;28;20048;-68
2022/05/18 10:51:38;;;;;;;8.50;7.20;;;26.40;99.90;;;;;;5094416;28;20437;-68
2022/05/18 10:54:30;;;;;;;13.18;9.23;;;26.40;99.90;;;;;;5094243;28;20047;-68
2022/05/18 10:57:17;;;;;;;13.13;8.75;;;26.40;99.90;;;;;;5091041;28;20052;-68
2022/05/18 10:59:59;;;;;;;11.80;6.97;;;26.40;99.90;;;;;;5093459;28;20055;-68
2022/05/18 11:02:43;;;;;;;10.47;7.73;;;26.40;99.90;;;;;;5094097;28;20044;-68
2022/05/18 11:05:19;;;;;;;10.40;7.07;;;26.50;99.90;;;;;;5093992;28;20274;-68
2022/05/18 11:07:46;;;;;;;11.82;6.07;;;26.60;99.90;;;;;;5093789;28;20048;-68
2022/05/18 11:10:12;;;;;;;12.70;7.15;;;26.70;99.90;;;;;;5093562;28;20062;-68
2022/05/18 11:12:56;;;;;;;10.85;5.90;;;26.70;99.90;;;;;;5093794;28;20540;-68
2022/05/18 11:15:46;;;;;;;11.90;5.97;;;26.70;99.90;;;;;;5093802;28;20424;-68
2022/05/18 11:18:33;;;;;;;12.43;6.95;;;26.80;99.90;;;;;;5093679;28;20063;-67
2022/05/18 11:21:36;;;;;;;11.50;6.88;;;26.80;99.90;;;;;;5093904;28;20388;-69
2022/05/18 11:24:10;;;;;;;13.93;6.78;;;26.90;99.90;;;;;;5093655;28;20036;-68
2022/05/18 11:27:12;;;;;;;16.98;8.85;;;26.90;99.90;;;;;;5093425;28;20119;-68
2022/05/18 11:29:52;;;;;;;14.63;8.68;;;27.00;99.90;;;;;;5093192;28;20040;-68
2022/05/18 11:32:45;;;;;;;14.98;9.18;;;27.00;99.90;;;;;;5093518;28;20118;-68
2022/05/18 11:35:26;;;;;;;12.77;8.95;;;26.90;99.90;;;;;;5093239;28;20488;-69
2022/05/18 11:38:03;;;;;;;17.58;8.95;;;27.00;99.90;;;;;;5093425;28;20040;-68
2022/05/18 11:40:29;;;;;;;14.45;7.30;;;27.10;99.90;;;;;;5092672;28;20040;-67
2022/05/18 11:43:29;;;;;;;11.57;8.20;;;27.20;99.90;;;;;;5093146;28;20043;-68
2022/05/18 11:46:07;;;;;;;11.20;8.13;;;27.20;99.90;;;;;;5093192;28;20500;-68
2022/05/18 11:48:47;;;;;;;13.50;7.70;;;27.20;99.90;;;;;;5092854;28;20564;-68
2022/05/18 11:51:20;;;;;;;10.63;8.10;;;27.10;99.90;;;;;;5093051;28;20044;-68
2022/05/18 11:54:14;;;;;;;13.57;9.50;;;27.10;99.90;;;;;;5092950;28;20035;-68
2022/05/18 11:57:01;;;;;;;16.33;9.52;;;27.00;99.90;;;;;;5093073;28;20050;-68
2022/05/18 11:59:51;;;;;;;14.98;9.30;;;27.10;99.90;;;;;;5092585;28;20123;-68
2022/05/18 12:02:35;;;;;;;16.15;8.98;;;27.20;99.90;;;;;;5092927;28;20044;-68
2022/05/18 12:05:06;;;;;;;13.75;8.73;;;27.30;99.90;;;;;;5092896;28;20116;-68
2022/05/18 12:08:25;;;;;;;14.93;9.50;;;27.40;99.90;;;;;;5092658;28;20484;-68
2022/05/18 12:10:57;;;;;;;12.27;7.88;;;27.50;99.90;;;;;;5092840;28;20132;-68
2022/05/18 12:13:29;;;;;;;;;;;27.50;99.90;;;;;;5093189;28;20060;-68
2022/05/18 12:16:21;;;;;;;11.27;7.28;;;27.60;99.90;;;;;;5092646;28;20273;-68
2022/05/18 12:19:01;;;;;;;16.27;8.63;;;27.70;99.90;;;;;;5092176;28;20036;-68
2022/05/18 12:54:50;;;;;;;14.05;10.15;;;28.20;99.90;;;;;;5091116;28;20031;-68
2022/05/18 12:57:26;;;;;;;17.98;10.27;;;28.10;99.90;;;;;;5091970;28;20036;-68
2022/05/18 13:00:06;;;;;;;19.90;10.98;;;28.00;99.90;;;;;;5091293;28;20181;-68
2022/05/18 13:02:40;;;;;;;16.90;9.05;;;28.30;99.90;;;;;;5091587;28;20048;-68
2022/05/18 13:05:25;;;;;;;20.02;11.20;;;28.40;99.90;;;;;;5091882;28;20058;-68
2022/05/18 13:07:59;;;;;;;18.58;10.30;;;28.20;99.90;;;;;;5091626;28;20047;-68
2022/05/18 13:10:31;;;;;;;14.88;11.02;;;28.10;99.90;;;;;;5091183;28;20520;-68
2022/05/18 13:13:18;;;;;;;12.98;9.73;;;28.00;99.90;;;;;;5090393;28;20055;-68
2022/05/18 13:34:45;;;;;;;19.27;13.95;;;28.20;99.90;;;;;;5090570;28;20085;-68
2022/05/18 13:37:11;;;;;;;22.50;14.93;;;28.10;99.90;;;;;;5090984;28;20083;-68
2022/05/18 13:39:40;;;;;;;25.67;16.20;;;28.20;99.90;;;;;;5090647;28;20075;-68
2022/05/18 13:42:17;;;;;;;24.05;14.65;;;28.20;99.90;;;;;;5089785;28;20047;-68
2022/05/18 13:44:44;;;;;;;22.17;15.75;;;28.10;99.90;;;;;;5091224;28;20036;-68
2022/05/18 13:47:23;;;;;;;20.00;14.68;;;27.90;99.90;;;;;;5091091;28;20040;-68
2022/05/18 13:49:50;;;;;;;22.33;13.80;;;28.00;99.90;;;;;;5090600;28;20044;-68
2022/05/18 16:04:07;;;;;;;15.23;7.82;;;26.80;99.90;;;;;;5092154;28;20039;-67
2022/05/18 16:06:34;;;;;;;10.23;6.68;;;26.70;99.90;;;;;;5092340;28;20499;-67
2022/05/18 16:09:00;;;;;;;14.68;6.50;;;26.70;99.90;;;;;;5092535;28;20093;-68
2022/05/18 16:11:30;;;;;;;12.40;6.47;;;26.60;99.90;;;;;;5092663;28;20047;-68
2022/05/18 16:13:55;;;;;;;13.02;5.68;;;26.70;99.90;;;;;;5092715;28;20076;-68
2022/05/18 16:16:21;;;;;;;13.68;6.70;;;26.60;99.90;;;;;;5091371;28;20075;-68